Time;durP1;ratioP1;P1;durP2;ratioP2;P2;SDS_P1;SDS_P2;PMS_P1;PMS_P2;Temp;Humidity;BMP_temperature;BMP_pressure;BME280_temperature;BME280_humidity;BME280_pressure;Samples;Min_cycle;Max_cycle;Signal;HPM_P1;HPM_P2
2021/04/28 00:01:39;;;;;;;3.92;2.85;;;10.10;47.30;;;;;;5089969;28;20388;-77
2021/04/28 00:04:06;;;;;;;4.72;3.38;;;10.10;47.60;;;;;;5123417;27;20043;-77
2021/04/28 00:06:32;;;;;;;9.98;3.50;;;10.00;47.60;;;;;;5102531;28;20081;-77
2021/04/28 00:08:58;;;;;;;7.18;3.40;;;9.90;47.70;;;;;;5093990;28;20034;-77
2021/04/28 00:11:24;;;;;;;7.85;3.20;;;9.90;47.80;;;;;;5092361;28;20040;-77
2021/04/28 00:13:50;;;;;;;7.40;3.33;;;9.80;48.00;;;;;;5083028;28;20028;-77
2021/04/28 00:16:19;;;;;;;4.55;3.35;;;9.80;48.20;;;;;;5094418;28;20032;-77
2021/04/28 00:18:46;;;;;;;8.43;3.53;;;9.80;48.30;;;;;;5093874;28;20020;-77
2021/04/28 00:21:13;;;;;;;5.47;3.45;;;9.80;48.30;;;;;;5094181;28;20419;-77
2021/04/28 00:23:39;;;;;;;5.50;3.40;;;9.80;48.30;;;;;;5093778;28;20031;-77
2021/04/28 00:26:05;;;;;;;6.18;3.60;;;9.70;48.30;;;;;;5093861;28;20032;-77
2021/04/28 00:28:30;;;;;;;4.97;3.15;;;9.70;48.20;;;;;;5093863;28;20028;-77
2021/04/28 00:30:56;;;;;;;8.02;3.67;;;9.70;48.30;;;;;;5093846;28;20459;-77
2021/04/28 00:33:22;;;;;;;6.32;3.55;;;9.80;48.90;;;;;;5103788;28;20029;-77
2021/04/28 00:35:47;;;;;;;10.27;4.03;;;9.80;48.20;;;;;;5073898;28;20110;-77
2021/04/28 00:38:13;;;;;;;7.75;3.63;;;9.80;48.10;;;;;;5092045;28;20097;-77
2021/04/28 00:40:40;;;;;;;6.38;3.80;;;9.80;48.20;;;;;;5109178;28;20028;-77
2021/04/28 00:43:06;;;;;;;7.43;3.63;;;9.70;48.30;;;;;;5109523;28;20029;-77
2021/04/28 00:45:35;;;;;;;13.45;3.60;;;9.70;48.40;;;;;;5093454;28;20400;-77
2021/04/28 00:48:02;;;;;;;;;;;9.70;48.50;;;;;;5075483;28;20081;-76
2021/04/28 00:50:34;;;;;;;5.97;3.47;;;9.60;48.40;;;;;;5093653;28;19908;-77
2021/04/28 00:53:11;;;;;;;5.57;3.20;;;9.60;48.70;;;;;;5075426;28;20024;-77
2021/04/28 00:55:37;;;;;;;8.43;3.60;;;9.60;48.90;;;;;;5093478;28;20056;-77
2021/04/28 00:58:04;;;;;;;7.78;3.58;;;9.60;48.90;;;;;;5093214;28;20489;-77
2021/04/28 01:00:30;;;;;;;6.78;3.33;;;9.60;49.00;;;;;;5074933;28;20036;-77
2021/04/28 01:02:55;;;;;;;7.45;3.65;;;9.50;49.10;;;;;;5093094;28;20028;-77
2021/04/28 01:05:22;;;;;;;13.63;3.70;;;9.40;49.20;;;;;;5075371;28;20609;-77
2021/04/28 01:07:49;;;;;;;5.20;3.30;;;9.40;49.40;;;;;;5091640;28;20028;-77
2021/04/28 01:10:29;;;;;;;4.78;3.75;;;9.40;49.40;;;;;;5072655;28;20064;-77
2021/04/28 01:12:55;;;;;;;11.50;3.75;;;9.40;49.80;;;;;;5074921;28;20127;-77
2021/04/28 01:15:24;;;;;;;7.25;3.58;;;9.40;49.70;;;;;;5054732;28;20078;-77
2021/04/28 01:17:51;;;;;;;4.28;3.53;;;9.40;50.40;;;;;;5101938;28;20059;-77
2021/04/28 01:20:19;;;;;;;10.13;3.90;;;9.30;49.80;;;;;;5093272;28;20074;-77
2021/04/28 01:22:46;;;;;;;7.38;3.80;;;9.30;50.00;;;;;;5092045;28;20029;-77
2021/04/28 01:25:18;;;;;;;6.43;3.80;;;9.20;50.00;;;;;;5088585;28;20021;-77
2021/04/28 01:27:57;;;;;;;7.00;3.90;;;9.20;50.30;;;;;;5073913;28;20024;-77
2021/04/28 01:30:27;;;;;;;10.70;3.80;;;9.20;50.40;;;;;;5093084;28;20028;-77
2021/04/28 01:32:55;;;;;;;9.30;3.70;;;9.20;50.50;;;;;;5092695;28;20027;-77
2021/04/28 01:35:22;;;;;;;4.97;3.55;;;9.20;50.80;;;;;;5075030;28;20021;-77
2021/04/28 01:37:48;;;;;;;6.43;3.50;;;9.20;51.00;;;;;;5058154;28;20111;-77
2021/04/28 01:40:16;;;;;;;7.32;3.42;;;9.10;51.20;;;;;;5054623;28;20544;-76
2021/04/28 01:42:43;;;;;;;9.57;4.25;;;9.10;51.20;;;;;;5072658;28;20050;-77
2021/04/28 01:45:12;;;;;;;8.05;4.32;;;9.00;51.30;;;;;;5072727;28;20120;-77
2021/04/28 01:47:39;;;;;;;5.53;3.70;;;9.00;51.20;;;;;;5091403;28;20032;-77
2021/04/28 01:50:07;;;;;;;6.18;3.95;;;9.10;51.20;;;;;;5092778;28;20289;-77
2021/04/28 01:52:32;;;;;;;7.68;3.80;;;9.00;51.20;;;;;;5092435;28;20052;-77
2021/04/28 01:54:59;;;;;;;6.65;3.83;;;9.00;51.30;;;;;;5058875;28;20052;-77
2021/04/28 01:57:26;;;;;;;8.40;3.60;;;9.00;51.40;;;;;;5068188;28;20492;-77
2021/04/28 01:59:51;;;;;;;11.15;3.72;;;9.00;51.30;;;;;;5096465;28;20499;-77
2021/04/28 02:02:18;;;;;;;6.13;3.83;;;8.90;51.40;;;;;;5077989;28;20037;-77
2021/04/28 02:04:45;;;;;;;6.53;3.70;;;8.90;51.50;;;;;;5096125;28;20105;-77
2021/04/28 02:07:11;;;;;;;8.90;3.92;;;8.90;51.60;;;;;;5111799;28;20043;-77
2021/04/28 02:09:37;;;;;;;5.15;3.33;;;8.80;51.60;;;;;;5077545;28;20433;-77
2021/04/28 02:12:03;;;;;;;6.45;3.90;;;8.80;51.70;;;;;;5096000;28;20055;-77
2021/04/28 02:14:30;;;;;;;9.77;3.97;;;8.90;51.70;;;;;;5095795;28;20028;-77
2021/04/28 02:16:57;;;;;;;8.48;3.90;;;8.80;51.60;;;;;;5095980;28;20484;-77
2021/04/28 02:19:23;;;;;;;9.45;3.88;;;8.90;51.60;;;;;;5073853;28;20082;-76
2021/04/28 02:21:50;;;;;;;6.32;3.70;;;8.80;51.70;;;;;;5077774;28;20090;-76
2021/04/28 02:24:16;;;;;;;8.70;3.95;;;8.80;51.90;;;;;;5094380;28;20024;-77
2021/04/28 02:26:43;;;;;;;7.10;3.95;;;8.80;52.00;;;;;;5060858;28;20396;-77
2021/04/28 02:29:09;;;;;;;7.45;4.00;;;8.70;52.00;;;;;;5095892;28;20028;-77
2021/04/28 02:31:36;;;;;;;6.05;3.45;;;8.70;52.10;;;;;;5096784;28;20065;-77
2021/04/28 02:34:03;;;;;;;17.00;4.05;;;8.70;52.20;;;;;;5066760;28;20050;-77
2021/04/28 02:36:33;;;;;;;6.80;3.70;;;8.70;52.40;;;;;;5091020;28;20107;-77
2021/04/28 02:39:05;;;;;;;9.82;5.22;;;8.60;52.40;;;;;;5065050;28;20082;-77
2021/04/28 02:41:31;;;;;;;10.90;3.90;;;8.60;52.70;;;;;;5093918;28;20024;-76
2021/04/28 02:43:59;;;;;;;7.15;3.83;;;8.60;52.80;;;;;;5100637;28;20024;-76
2021/04/28 02:46:27;;;;;;;7.13;3.38;;;8.60;52.70;;;;;;5105185;28;20024;-77
2021/04/28 02:48:53;;;;;;;6.72;3.63;;;8.60;52.70;;;;;;5064404;28;20029;-77
2021/04/28 02:51:19;;;;;;;7.80;3.70;;;8.50;52.60;;;;;;5094323;28;20032;-77
2021/04/28 02:53:46;;;;;;;8.00;3.95;;;8.50;52.60;;;;;;5080747;28;20032;-77
2021/04/28 02:56:12;;;;;;;6.40;3.78;;;8.50;52.60;;;;;;5067020;28;20481;-77
2021/04/28 02:58:39;;;;;;;8.07;3.95;;;8.50;52.60;;;;;;5063654;28;20043;-77
2021/04/28 03:01:05;;;;;;;12.45;4.20;;;8.40;52.60;;;;;;5066030;28;20054;-77
2021/04/28 03:03:34;;;;;;;5.97;3.70;;;8.40;52.60;;;;;;5087589;28;20046;-77
2021/04/28 03:06:00;;;;;;;9.88;4.35;;;8.40;52.70;;;;;;5095200;28;20103;-77
2021/04/28 03:08:26;;;;;;;9.50;3.92;;;8.40;52.90;;;;;;5076567;28;20065;-77
2021/04/28 03:10:53;;;;;;;5.90;3.70;;;8.30;52.90;;;;;;5110382;28;20124;-76
2021/04/28 03:13:18;;;;;;;10.90;4.03;;;8.30;53.20;;;;;;5094993;28;20039;-77
2021/04/28 03:15:47;;;;;;;7.90;4.03;;;8.30;53.30;;;;;;5076707;28;20501;-76
2021/04/28 03:18:14;;;;;;;7.82;4.30;;;8.30;53.40;;;;;;5091606;28;20047;-77
2021/04/28 03:20:42;;;;;;;7.95;4.50;;;8.30;53.40;;;;;;5094054;28;20403;-77
2021/04/28 03:23:12;;;;;;;9.95;4.28;;;8.20;53.60;;;;;;5092957;28;20031;-76
2021/04/28 03:25:38;;;;;;;7.15;4.03;;;8.20;53.90;;;;;;5100450;28;20032;-77
2021/04/28 03:28:04;;;;;;;6.10;3.78;;;8.20;53.90;;;;;;5069900;28;20028;-77
2021/04/28 03:30:30;;;;;;;9.07;4.88;;;8.10;54.00;;;;;;5059642;28;20134;-76
2021/04/28 03:32:55;;;;;;;7.43;4.22;;;8.10;54.20;;;;;;5076334;28;20025;-77
2021/04/28 03:35:21;;;;;;;13.00;4.20;;;8.10;54.40;;;;;;5093482;28;20024;-77
2021/04/28 03:37:47;;;;;;;10.75;4.40;;;8.00;54.50;;;;;;5073494;28;20036;-76
2021/04/28 03:40:13;;;;;;;8.20;4.50;;;8.00;54.60;;;;;;5076409;28;20036;-76
2021/04/28 03:42:38;;;;;;;7.93;4.10;;;8.00;54.60;;;;;;5077076;28;20020;-77
2021/04/28 03:45:06;;;;;;;8.05;4.35;;;8.00;54.70;;;;;;5076746;28;20052;-77
2021/04/28 03:47:32;;;;;;;10.18;4.55;;;8.00;54.70;;;;;;5087536;28;20134;-77
2021/04/28 03:49:59;;;;;;;8.77;4.60;;;8.00;54.70;;;;;;5094344;28;20039;-77
2021/04/28 03:52:25;;;;;;;10.25;4.30;;;7.90;54.80;;;;;;5094796;28;20028;-77
2021/04/28 03:54:50;;;;;;;14.02;4.50;;;7.90;54.90;;;;;;5076517;28;20045;-77
2021/04/28 03:57:16;;;;;;;7.32;4.63;;;7.90;55.10;;;;;;5076330;28;20469;-77
2021/04/28 03:59:42;;;;;;;5.93;4.20;;;7.90;55.20;;;;;;5094604;28;20024;-77
2021/04/28 04:02:08;;;;;;;6.75;4.85;;;7.80;55.20;;;;;;5094703;28;20019;-77
2021/04/28 04:04:34;;;;;;;13.60;4.68;;;7.80;55.30;;;;;;5078458;28;20443;-77
2021/04/28 04:07:00;;;;;;;7.95;4.60;;;7.80;55.30;;;;;;5109455;28;20392;-77
2021/04/28 04:09:26;;;;;;;6.40;4.10;;;7.80;55.40;;;;;;5059537;28;20481;-76
2021/04/28 04:11:52;;;;;;;5.85;4.03;;;7.80;55.50;;;;;;5070120;28;20079;-77
2021/04/28 04:14:18;;;;;;;7.00;4.70;;;7.80;55.70;;;;;;5060853;28;20029;-77
2021/04/28 04:16:43;;;;;;;8.52;4.78;;;7.70;55.60;;;;;;5070260;28;20047;-76
2021/04/28 04:19:10;;;;;;;11.55;4.60;;;7.70;55.60;;;;;;5073927;28;20374;-77
2021/04/28 04:21:36;;;;;;;9.00;4.93;;;7.70;55.70;;;;;;5073555;28;20024;-77
2021/04/28 04:24:01;;;;;;;8.32;4.40;;;7.70;55.90;;;;;;5073134;28;20028;-77
2021/04/28 04:26:27;;;;;;;6.63;4.40;;;7.70;55.90;;;;;;5073034;28;20557;-77
2021/04/28 04:28:53;;;;;;;7.13;4.68;;;7.70;56.00;;;;;;5073619;28;20377;-77
2021/04/28 04:31:18;;;;;;;8.40;4.57;;;7.70;56.00;;;;;;5073220;28;20382;-77
2021/04/28 04:33:44;;;;;;;9.50;4.63;;;7.70;56.60;;;;;;5072450;28;20058;-77
2021/04/28 04:36:09;;;;;;;10.77;4.57;;;7.80;56.10;;;;;;5104558;28;20086;-77
2021/04/28 04:38:35;;;;;;;9.10;4.78;;;7.70;55.90;;;;;;5052515;28;20042;-76
2021/04/28 04:41:01;;;;;;;13.80;5.20;;;7.80;55.90;;;;;;5064734;28;20038;-77
2021/04/28 04:43:26;;;;;;;19.88;5.22;;;7.80;56.10;;;;;;5072197;28;20036;-77
2021/04/28 04:45:52;;;;;;;11.50;5.43;;;7.80;56.00;;;;;;5058655;28;20036;-77
2021/04/28 04:48:17;;;;;;;19.58;5.15;;;7.80;56.00;;;;;;5083186;28;20397;-76
2021/04/28 04:50:43;;;;;;;9.75;5.32;;;7.80;56.10;;;;;;5050276;28;20496;-77
2021/04/28 04:53:09;;;;;;;15.18;5.72;;;7.80;56.40;;;;;;5072965;28;20024;-76
2021/04/28 04:55:36;;;;;;;8.15;5.25;;;7.80;56.40;;;;;;5073447;28;20028;-77
2021/04/28 04:58:01;;;;;;;12.38;5.85;;;7.80;56.30;;;;;;5072929;28;20024;-77
2021/04/28 05:00:27;;;;;;;8.77;5.20;;;7.90;56.20;;;;;;5072978;28;20153;-77
2021/04/28 05:02:53;;;;;;;10.00;5.53;;;7.90;56.20;;;;;;5071629;28;20119;-77
2021/04/28 05:05:18;;;;;;;8.30;5.38;;;8.00;56.40;;;;;;5071578;28;20459;-77
2021/04/28 05:07:44;;;;;;;9.95;5.45;;;8.00;56.20;;;;;;5071812;28;20032;-77
2021/04/28 05:10:12;;;;;;;11.45;5.88;;;8.10;56.10;;;;;;5071984;28;20124;-77
2021/04/28 05:12:38;;;;;;;9.55;5.40;;;8.20;56.10;;;;;;5088340;28;20055;-77
2021/04/28 05:15:05;;;;;;;12.90;5.30;;;8.20;55.90;;;;;;5075202;28;20046;-77
2021/04/28 05:17:31;;;;;;;13.57;5.10;;;8.30;55.80;;;;;;5058092;28;20035;-77
2021/04/28 05:19:57;;;;;;;8.27;5.40;;;8.40;55.90;;;;;;5088753;28;20028;-77
2021/04/28 05:22:26;;;;;;;13.15;5.47;;;8.40;55.80;;;;;;5075219;28;20028;-77
2021/04/28 05:24:52;;;;;;;12.53;5.70;;;8.50;55.80;;;;;;5093348;28;20028;-77
2021/04/28 05:27:18;;;;;;;10.88;6.00;;;8.50;55.80;;;;;;5096530;28;20349;-77
2021/04/28 05:29:43;;;;;;;12.20;5.75;;;8.60;55.90;;;;;;5097430;28;20102;-77
2021/04/28 05:32:09;;;;;;;15.00;6.07;;;8.60;55.80;;;;;;5097216;28;20048;-77
2021/04/28 05:34:36;;;;;;;8.02;5.57;;;8.70;56.00;;;;;;5095695;28;20051;-77
2021/04/28 05:37:04;;;;;;;16.35;6.18;;;8.70;56.30;;;;;;5100562;28;20024;-77
2021/04/28 05:39:30;;;;;;;15.02;6.25;;;8.80;55.70;;;;;;5097482;28;20086;-76
2021/04/28 05:41:56;;;;;;;11.85;5.97;;;8.80;55.60;;;;;;5096869;28;20024;-77
2021/04/28 05:44:22;;;;;;;15.10;6.25;;;9.00;55.70;;;;;;5113060;28;20472;-77
2021/04/28 05:46:47;;;;;;;12.23;6.45;;;9.00;55.50;;;;;;5080271;28;20374;-77
2021/04/28 05:49:16;;;;;;;12.82;6.10;;;9.20;55.30;;;;;;5096914;28;20024;-77
2021/04/28 05:51:42;;;;;;;14.80;6.43;;;9.30;55.10;;;;;;5079131;28;20423;-77
2021/04/28 05:54:08;;;;;;;15.90;6.47;;;9.40;55.10;;;;;;5096547;28;20035;-77
2021/04/28 05:56:36;;;;;;;14.18;6.35;;;9.50;54.90;;;;;;5085519;28;20024;-77
2021/04/28 05:59:02;;;;;;;16.10;6.55;;;9.60;54.70;;;;;;5096699;28;20020;-77
2021/04/28 06:01:28;;;;;;;12.05;5.95;;;9.60;54.70;;;;;;5096740;28;20055;-78
2021/04/28 06:03:53;;;;;;;10.68;6.00;;;9.70;54.70;;;;;;5096876;28;20032;-77
2021/04/28 06:06:19;;;;;;;14.35;6.97;;;9.70;54.50;;;;;;5096504;28;20063;-77
2021/04/28 06:08:45;;;;;;;13.05;6.65;;;9.80;54.50;;;;;;5112280;28;20028;-77
2021/04/28 06:11:11;;;;;;;14.00;6.32;;;9.90;54.40;;;;;;5095185;28;20493;-77
2021/04/28 06:13:36;;;;;;;13.85;6.45;;;10.00;54.40;;;;;;5094990;28;20028;-76
2021/04/28 06:16:02;;;;;;;12.82;6.57;;;10.10;54.30;;;;;;5096271;28;20028;-77
2021/04/28 06:18:28;;;;;;;16.17;6.90;;;10.20;54.10;;;;;;5061579;28;20035;-77
2021/04/28 06:20:53;;;;;;;14.38;6.38;;;10.20;54.00;;;;;;5096372;28;20066;-77
2021/04/28 06:23:19;;;;;;;13.55;6.20;;;10.30;53.80;;;;;;5096117;28;20028;-77
2021/04/28 06:25:45;;;;;;;18.33;6.38;;;10.40;53.60;;;;;;5096118;28;20530;-77
2021/04/28 06:28:11;;;;;;;17.17;6.70;;;10.40;53.40;;;;;;5104482;28;20086;-76
2021/04/28 06:30:37;;;;;;;9.82;6.45;;;10.50;53.30;;;;;;5087078;28;20032;-77
2021/04/28 06:33:03;;;;;;;11.23;6.25;;;10.70;53.00;;;;;;5095985;28;20169;-77
2021/04/28 06:35:28;;;;;;;14.27;6.63;;;10.80;52.50;;;;;;5096201;28;20425;-76
2021/04/28 06:37:54;;;;;;;17.65;6.68;;;11.00;52.30;;;;;;5095444;28;20082;-76
2021/04/28 06:40:20;;;;;;;20.85;7.28;;;11.00;52.10;;;;;;5111012;28;20061;-76
2021/04/28 06:42:47;;;;;;;14.98;7.00;;;11.10;52.50;;;;;;5095852;28;20114;-76
2021/04/28 06:45:12;;;;;;;13.60;6.53;;;11.20;51.70;;;;;;5095961;28;20027;-76
2021/04/28 06:47:38;;;;;;;14.23;6.95;;;11.20;51.50;;;;;;5090601;28;20413;-77
2021/04/28 06:50:04;;;;;;;17.67;7.63;;;11.30;51.50;;;;;;5092308;28;20385;-77
2021/04/28 06:52:30;;;;;;;16.52;7.38;;;11.40;51.30;;;;;;5095509;28;20036;-77
2021/04/28 06:54:55;;;;;;;15.43;7.40;;;11.50;51.30;;;;;;5061094;28;20032;-77
2021/04/28 06:57:21;;;;;;;15.38;6.47;;;11.60;51.30;;;;;;5095219;28;20062;-77
2021/04/28 06:59:47;;;;;;;13.05;6.63;;;11.70;51.20;;;;;;5095770;28;20028;-77
2021/04/28 07:02:12;;;;;;;12.35;6.50;;;11.80;51.00;;;;;;5095451;28;20028;-77
2021/04/28 07:04:38;;;;;;;19.73;7.10;;;11.90;50.80;;;;;;5095501;28;20028;-77
2021/04/28 07:07:04;;;;;;;13.88;6.70;;;12.00;50.40;;;;;;5094815;28;20751;-77
2021/04/28 07:09:29;;;;;;;11.27;6.28;;;12.10;50.20;;;;;;5076819;28;20120;-76
2021/04/28 07:11:55;;;;;;;11.93;6.90;;;12.30;50.10;;;;;;5094922;28;20385;-76
2021/04/28 07:14:21;;;;;;;10.82;6.20;;;12.50;49.90;;;;;;5095334;28;20020;-76
2021/04/28 07:16:46;;;;;;;13.75;6.85;;;12.60;49.50;;;;;;5095325;28;20020;-76
2021/04/28 07:19:12;;;;;;;13.52;6.82;;;12.80;48.80;;;;;;5073303;28;20500;-77
2021/04/28 07:21:38;;;;;;;11.63;6.57;;;12.90;47.90;;;;;;5095107;28;20106;-77
2021/04/28 07:24:04;;;;;;;12.32;6.25;;;13.10;47.30;;;;;;5079398;28;20077;-76
2021/04/28 07:26:31;;;;;;;9.82;6.05;;;13.20;46.90;;;;;;5103155;28;20035;-77
2021/04/28 07:28:56;;;;;;;12.25;6.85;;;13.30;46.40;;;;;;5095026;28;20024;-76
2021/04/28 07:31:23;;;;;;;14.88;6.32;;;13.40;46.00;;;;;;5094786;28;20361;-77
2021/04/28 07:33:48;;;;;;;11.75;6.47;;;13.50;45.90;;;;;;5094430;28;20027;-77
2021/04/28 07:36:15;;;;;;;14.07;6.75;;;13.70;45.50;;;;;;5094609;28;20031;-77
2021/04/28 07:38:41;;;;;;;10.93;6.80;;;13.80;45.10;;;;;;5092574;28;20028;-77
2021/04/28 07:41:07;;;;;;;12.50;6.68;;;13.90;44.20;;;;;;5076466;28;20055;-77
2021/04/28 07:43:33;;;;;;;12.88;6.50;;;14.00;44.40;;;;;;5094321;28;20024;-77
2021/04/28 07:45:59;;;;;;;11.75;6.57;;;14.10;44.40;;;;;;5097889;28;20431;-77
2021/04/28 07:48:25;;;;;;;14.18;6.57;;;14.20;44.20;;;;;;5094434;28;20040;-76
2021/04/28 07:50:50;;;;;;;13.15;7.03;;;14.40;43.90;;;;;;5093640;28;20036;-77
2021/04/28 07:53:16;;;;;;;13.15;6.28;;;14.50;43.90;;;;;;5094126;28;20016;-76
2021/04/28 07:55:47;;;;;;;10.80;6.00;;;14.70;43.70;;;;;;5094472;28;20389;-76
2021/04/28 07:58:15;;;;;;;12.93;6.38;;;14.90;43.10;;;;;;5074520;28;20410;-77
2021/04/28 08:00:41;;;;;;;15.02;6.68;;;15.10;43.00;;;;;;5074189;28;20469;-76
2021/04/28 08:03:07;;;;;;;12.55;6.60;;;15.30;42.70;;;;;;5075917;28;20032;-77
2021/04/28 08:05:33;;;;;;;12.10;6.40;;;15.50;42.40;;;;;;5100263;28;20052;-77
2021/04/28 08:07:58;;;;;;;11.70;6.10;;;15.60;41.50;;;;;;5094097;28;20032;-77
2021/04/28 08:10:24;;;;;;;17.65;6.60;;;15.70;41.60;;;;;;5093962;28;20628;-76
2021/04/28 08:12:50;;;;;;;13.18;6.70;;;15.80;41.70;;;;;;5093794;28;20048;-76
2021/04/28 08:15:16;;;;;;;11.02;6.95;;;16.00;41.50;;;;;;5086474;28;20032;-76
2021/04/28 08:17:42;;;;;;;16.65;7.88;;;16.10;41.30;;;;;;5109409;28;20020;-77
2021/04/28 08:20:09;;;;;;;16.23;7.05;;;16.30;41.20;;;;;;5106960;28;20392;-77
2021/04/28 08:22:35;;;;;;;12.77;6.68;;;16.40;40.90;;;;;;5093953;28;20095;-72
2021/04/28 08:25:04;;;;;;;8.77;6.15;;;16.50;40.40;;;;;;5074995;28;20070;-72
2021/04/28 08:27:29;;;;;;;9.85;6.38;;;16.60;40.50;;;;;;5078394;28;20033;-72
2021/04/28 08:29:56;;;;;;;11.10;7.05;;;16.70;40.60;;;;;;5093499;28;20476;-72
2021/04/28 08:32:22;;;;;;;16.85;6.65;;;16.80;40.10;;;;;;5058935;28;20369;-72
2021/04/28 08:34:48;;;;;;;10.93;6.25;;;17.00;39.90;;;;;;5095886;28;20015;-72
2021/04/28 08:37:13;;;;;;;14.48;7.50;;;17.10;40.00;;;;;;5088995;28;20028;-72
2021/04/28 08:39:40;;;;;;;11.68;6.93;;;17.10;39.50;;;;;;5083866;28;20082;-71
2021/04/28 08:42:06;;;;;;;12.82;6.97;;;17.20;39.70;;;;;;5081676;28;20043;-71
2021/04/28 08:44:31;;;;;;;14.82;7.10;;;17.30;39.80;;;;;;5085985;28;20028;-72
2021/04/28 08:46:57;;;;;;;22.45;7.65;;;17.50;39.40;;;;;;5089316;28;20028;-72
2021/04/28 08:49:23;;;;;;;16.92;8.18;;;17.70;39.10;;;;;;5090640;28;20043;-72
2021/04/28 08:51:51;;;;;;;19.90;7.47;;;17.80;38.60;;;;;;5075320;28;20480;-71
2021/04/28 08:54:17;;;;;;;13.30;7.05;;;17.80;38.80;;;;;;5091283;28;20024;-72
2021/04/28 08:56:50;;;;;;;15.45;7.28;;;17.90;39.50;;;;;;5090882;28;20065;-72
2021/04/28 08:59:16;;;;;;;17.63;8.43;;;18.00;38.50;;;;;;5089675;28;20070;-72
2021/04/28 09:01:45;;;;;;;16.98;7.82;;;18.00;38.80;;;;;;5081370;28;20028;-72
2021/04/28 09:04:13;;;;;;;25.90;7.70;;;18.20;38.80;;;;;;5077648;28;20024;-72
2021/04/28 09:06:39;;;;;;;17.20;7.47;;;18.30;38.70;;;;;;5095062;28;20086;-71
2021/04/28 09:09:13;;;;;;;13.75;7.78;;;18.50;38.20;;;;;;5083668;28;20028;-72
2021/04/28 09:11:51;;;;;;;21.08;8.65;;;18.60;38.40;;;;;;5085306;28;20068;-72
2021/04/28 09:14:21;;;;;;;13.88;7.78;;;18.70;37.50;;;;;;5074756;28;20053;-72
2021/04/28 09:16:56;;;;;;;12.30;7.90;;;18.80;37.40;;;;;;5092386;28;20028;-72
2021/04/28 09:19:44;;;;;;;13.82;7.72;;;18.80;37.50;;;;;;5092606;28;20021;-72
2021/04/28 09:22:13;;;;;;;16.13;7.47;;;18.90;37.40;;;;;;5071212;28;20070;-73
2021/04/28 09:24:48;;;;;;;14.75;8.52;;;19.00;37.40;;;;;;5058129;28;20401;-72
2021/04/28 09:27:34;;;;;;;14.45;8.45;;;19.10;37.60;;;;;;5086478;28;20111;-72
2021/04/28 09:29:59;;;;;;;13.80;7.93;;;19.00;37.20;;;;;;5075847;28;20033;-72
2021/04/28 09:32:38;;;;;;;10.80;7.68;;;19.10;37.60;;;;;;5086127;28;20670;-72
2021/04/28 09:35:19;;;;;;;15.13;8.63;;;19.20;37.30;;;;;;5092464;28;20079;-72
2021/04/28 09:37:55;;;;;;;18.98;8.63;;;19.30;36.90;;;;;;5090470;28;20062;-72
2021/04/28 09:40:22;;;;;;;15.40;8.77;;;19.40;36.90;;;;;;5072379;28;20090;-72
2021/04/28 09:42:52;;;;;;;15.95;8.57;;;19.40;36.60;;;;;;5070309;28;20077;-72
2021/04/28 09:45:37;;;;;;;19.23;8.75;;;19.40;37.00;;;;;;5074542;28;20481;-72
2021/04/28 09:48:04;;;;;;;16.27;7.85;;;19.40;36.50;;;;;;5092000;28;20035;-72
2021/04/28 09:50:29;;;;;;;17.25;8.10;;;19.50;36.80;;;;;;5092476;28;20028;-72
2021/04/28 09:52:55;;;;;;;14.43;8.20;;;19.60;36.70;;;;;;5078686;28;20086;-72
2021/04/28 09:55:22;;;;;;;15.02;8.40;;;19.90;36.50;;;;;;5092485;28;20039;-72
2021/04/28 09:57:50;;;;;;;13.13;8.95;;;20.10;36.00;;;;;;5059975;28;20024;-72
2021/04/28 10:00:30;;;;;;;15.98;8.07;;;20.20;35.60;;;;;;5072326;28;20040;-72
2021/04/28 10:03:00;;;;;;;18.42;8.45;;;20.30;34.90;;;;;;5083413;28;20035;-73
2021/04/28 10:05:42;;;;;;;16.95;8.32;;;20.40;34.80;;;;;;5092158;28;20028;-72
2021/04/28 10:08:21;;;;;;;16.13;8.98;;;20.50;34.10;;;;;;5072919;28;20108;-72
2021/04/28 10:10:48;;;;;;;;;;;20.60;34.40;;;;;;5056984;28;20032;-72
2021/04/28 10:13:15;;;;;;;17.77;9.18;;;20.60;33.70;;;;;;5093564;28;20363;-72
2021/04/28 10:15:41;;;;;;;18.95;8.52;;;20.80;34.10;;;;;;5076874;28;20476;-72
2021/04/28 10:18:08;;;;;;;18.30;8.60;;;21.00;34.10;;;;;;5095784;28;20031;-73
2021/04/28 10:20:37;;;;;;;20.50;9.13;;;21.10;34.10;;;;;;5077248;28;20038;-72
2021/04/28 10:23:25;;;;;;;13.07;8.60;;;21.30;33.20;;;;;;5092488;28;20028;-72
2021/04/28 10:25:50;;;;;;;12.98;8.88;;;21.40;32.80;;;;;;5095471;28;20130;-72
2021/04/28 10:28:16;;;;;;;14.93;8.18;;;21.40;32.40;;;;;;5085517;28;20443;-73
2021/04/28 10:30:44;;;;;;;18.13;7.53;;;21.50;32.50;;;;;;5077352;28;20531;-72
2021/04/28 10:33:18;;;;;;;17.20;7.80;;;21.70;32.40;;;;;;5094525;28;20086;-72
2021/04/28 10:35:44;;;;;;;17.95;6.55;;;21.90;31.60;;;;;;5094612;28;20278;-72
2021/04/28 10:38:10;;;;;;;9.02;6.15;;;22.00;30.10;;;;;;5061723;28;20091;-73
2021/04/28 10:40:37;;;;;;;7.70;5.30;;;22.10;29.10;;;;;;5074354;28;20035;-72
2021/04/28 10:43:10;;;;;;;79.13;8.43;;;22.10;28.30;;;;;;5061949;28;20032;-73
2021/04/28 10:45:37;;;;;;;11.68;5.45;;;22.30;28.40;;;;;;5076237;28;20043;-72
2021/04/28 10:48:11;;;;;;;14.45;7.70;;;22.40;27.90;;;;;;5076947;28;20029;-72
2021/04/28 10:50:45;;;;;;;16.08;8.02;;;22.40;27.90;;;;;;5094727;28;20035;-72
2021/04/28 10:53:26;;;;;;;12.52;7.85;;;22.30;28.60;;;;;;5077090;28;20032;-72
2021/04/28 10:55:58;;;;;;;11.27;7.38;;;22.30;29.20;;;;;;5093937;28;20032;-72
2021/04/28 11:01:01;;;;;;;11.05;7.25;;;22.30;29.20;;;;;;5077625;28;20040;-72
2021/04/28 11:03:46;;;;;;;10.77;7.40;;;22.50;28.90;;;;;;5091730;28;20146;-72
2021/04/28 11:06:21;;;;;;;11.88;8.20;;;22.60;28.60;;;;;;5075812;28;20032;-72
2021/04/28 11:09:06;;;;;;;13.27;7.68;;;22.70;28.10;;;;;;5076809;28;20031;-72
2021/04/28 11:14:23;;;;;;;12.48;7.28;;;22.80;28.40;;;;;;5093997;28;20123;-72
2021/04/28 11:17:14;;;;;;;11.57;8.75;;;22.80;28.80;;;;;;5092380;28;20075;-72
2021/04/28 11:19:40;;;;;;;13.32;8.20;;;22.80;28.80;;;;;;5093915;28;20098;-71
2021/04/28 11:22:10;;;;;;;11.98;8.25;;;22.90;28.70;;;;;;5089852;28;20017;-72
2021/04/28 11:24:59;;;;;;;14.60;8.30;;;22.90;28.80;;;;;;5065483;28;20468;-72
2021/04/28 11:28:08;;;;;;;11.38;8.55;;;23.00;28.50;;;;;;5086341;28;20491;-72
2021/04/28 11:30:33;;;;;;;;;;;23.10;28.50;;;;;;5090098;28;20031;-72
2021/04/28 11:33:17;;;;;;;14.25;7.03;;;23.20;29.00;;;;;;5094616;28;19904;-72
2021/04/28 11:35:52;;;;;;;14.68;7.18;;;23.40;28.60;;;;;;5093468;28;20385;-72
2021/04/28 11:38:19;;;;;;;16.00;9.38;;;23.50;28.00;;;;;;5094525;28;20465;-72
2021/04/28 11:40:55;;;;;;;13.07;8.68;;;23.70;27.80;;;;;;5094441;28;20043;-72
2021/04/28 11:43:24;;;;;;;11.23;7.72;;;23.80;27.80;;;;;;5097857;28;20427;-72
2021/04/28 11:45:51;;;;;;;16.98;8.95;;;23.80;28.00;;;;;;5094037;28;20032;-72
2021/04/28 11:48:24;;;;;;;11.27;7.78;;;23.80;27.70;;;;;;5094330;28;20032;-73
2021/04/28 11:50:54;;;;;;;14.82;7.65;;;23.90;27.90;;;;;;5093851;28;20032;-72
2021/04/28 11:53:20;;;;;;;9.70;7.20;;;23.90;27.50;;;;;;5093987;28;20023;-73
2021/04/28 11:55:46;;;;;;;10.45;7.20;;;23.90;27.40;;;;;;5059592;28;20044;-72
2021/04/28 11:58:23;;;;;;;11.25;7.55;;;23.90;26.80;;;;;;5075565;28;20085;-72
2021/04/28 12:00:50;;;;;;;9.02;7.80;;;23.90;26.80;;;;;;5069887;28;20397;-71
2021/04/28 12:03:15;;;;;;;9.13;7.15;;;23.90;27.00;;;;;;5074482;28;20036;-72
2021/04/28 12:05:41;;;;;;;14.25;7.82;;;24.00;27.20;;;;;;5073763;28;20025;-72
2021/04/28 12:08:07;;;;;;;15.77;7.90;;;24.10;27.20;;;;;;5082658;28;20020;-72
2021/04/28 12:10:33;;;;;;;13.90;7.97;;;24.10;27.20;;;;;;5071644;28;20162;-72
2021/04/28 12:12:59;;;;;;;11.88;8.02;;;24.20;26.90;;;;;;5079193;28;20048;-72
2021/04/28 12:15:24;;;;;;;14.95;8.10;;;24.20;26.80;;;;;;5075989;28;20142;-72
2021/04/28 12:17:53;;;;;;;15.40;8.75;;;24.30;26.80;;;;;;5074533;28;20110;-72
2021/04/28 12:20:21;;;;;;;9.80;7.32;;;24.20;26.20;;;;;;5084253;28;20024;-72
2021/04/28 12:22:47;;;;;;;13.20;8.32;;;24.10;26.70;;;;;;5092795;28;20131;-72
2021/04/28 12:25:14;;;;;;;11.63;7.00;;;24.00;26.20;;;;;;5074592;28;20039;-72
2021/04/28 12:27:45;;;;;;;11.90;7.43;;;24.00;26.40;;;;;;5092956;28;20087;-72
2021/04/28 12:30:20;;;;;;;8.70;6.90;;;24.00;26.20;;;;;;5093546;28;20036;-72
2021/04/28 12:32:47;;;;;;;15.13;6.32;;;24.00;26.20;;;;;;5093168;28;20097;-72
2021/04/28 12:35:24;;;;;;;14.00;6.22;;;24.10;26.60;;;;;;5074687;28;20032;-72
2021/04/28 12:38:01;;;;;;;9.57;5.97;;;24.20;26.20;;;;;;5074841;28;20408;-72
2021/04/28 12:40:42;;;;;;;8.73;6.97;;;24.30;26.40;;;;;;5093764;28;20111;-72
2021/04/28 12:43:14;;;;;;;9.65;6.80;;;24.40;25.70;;;;;;5093014;28;20028;-73
2021/04/28 12:45:41;;;;;;;10.20;6.15;;;24.40;25.70;;;;;;5075156;28;20462;-73
2021/04/28 12:48:12;;;;;;;12.75;6.47;;;24.50;25.90;;;;;;5092535;28;20522;-73
2021/04/28 12:50:40;;;;;;;9.43;6.13;;;24.50;24.90;;;;;;5091588;28;20066;-75
2021/04/28 12:53:10;;;;;;;10.55;6.18;;;24.40;25.20;;;;;;5092890;28;20043;-74
2021/04/28 12:55:41;;;;;;;12.57;5.90;;;24.40;25.20;;;;;;5091563;28;20081;-74